Satélite
Monitoreo Calidad de Agua Dropdown
Fecha Nombre Zona Categoría Año Temperatura C° Oxígeno disuelto (mg/L) Turbidez (NTU) pH            Profundidad Secchi (Metros) Oxígeno disuelto (%) Conductividad Específica (mS/cm) Salinidad (PSS) Aceites y Grasas (mg/L) Nitrato & Nitrito, Total (mg/L) Fósforo Total (mg/L) Enterococcus-Fecal (CFU/100mL) Nitrógeno Kjeldahl, Total(mg/L) TOC (mg/L) Clorofila A (mg/m3) Turbidez (NTU) ˆ TSS (mg/L) Amoníaco (mg/L) BOD (mg/L) Coliformes-Fecal(CFU/100mL) latitude longitude
1/15/2020 Bahía de San Juan 1 Estaciones de la Bahía de San Juan Monitoreo calidad de agua 2020 28.13 6.79 0.72 8.26 3.20 98.60 53.38 35.08 18.469567 -66.128554
1/15/2020 Bahía de San Juan 2 Estaciones de la Bahía de San Juan Monitoreo calidad de agua 2020 28.04 6.56 0.56 8.27 2.62 102.10 53.42 35.18 18.453831 -66.122214
1/15/2020 Bahía de San Juan 3 Estaciones de la Bahía de San Juan Monitoreo calidad de agua 2020 28.42 6.20 0.85 8.18 2.38 97.00 53.33 35.10 18.437665 -66.101517
1/15/2020 Canal La Malaria Estaciones Terrestres Monitoreo calidad de agua 2020 27.07 0.69 8.38 N/A N/A 8.80 2.12 1.08 18.435714 -66.134322
1/15/2020 Canal San Antonio Estaciones de la Bahía de San Juan Monitoreo calidad de agua 2020 27.44 6.52 0.01 8.22 3.95 100.30 53.44 35.22 18.459911 -66.092909
1/15/2020 Canal Suárez 1 Estaciones de la Laguna San José y Torrecilla Monitoreo calidad de agua 2020 27.52 6.68 6.57 N/A 1.50 88.20 13.63 7.71 18.426339 -65.998859
1/15/2020 Canal Suárez 2 Estaciones de la Laguna San José y Torrecilla Monitoreo calidad de agua 2020 27.80 0.52 11.99 N/A 0.40 7.20 20.33 12.11 18.432897 -65.985150
1/15/2020 Caño Martín Peña Estaciones de la Bahía de San Juan Monitoreo calidad de agua 2020 29.90 4.87 0.33 7.79 1.72 81.30 43.40 27.54 18.432944 -66.060892
1/15/2020 Embalse Las Curias Estaciones del Río Piedras Monitoreo calidad de agua 2020 24.61 1.84 4.53 7.09 N/A 22.10 0.32 0.15 18.342194 -66.050432
1/15/2020 Laguna del Condado 1 Estaciones de la Bahía de San Juan Monitoreo calidad de agua 2020 27.12 5.33 0.14 N/A N/A 81.00 51.42 33.73 18.457225 -66.076954
1/15/2020 Laguna del Condado 2 Estaciones de la Bahía de San Juan Monitoreo calidad de agua 2020 27.42 6.39 0.03 N/A N/A 98.50 53.85 35.52 18.461881 -66.084023
1/15/2020 Laguna los Corozos Estaciones de la Laguna San José y Torrecilla Monitoreo calidad de agua 2020 28.20 11.28 8.20 N/A 0.73 149.90 12.63 7.21 18.441579 -66.038588
1/15/2020 Laguna Piñones Estaciones Terrestres Monitoreo calidad de agua 2020 28.71 3.46 1.77 N/A N/A 46.90 14.13 8.14 18.442242 -65.956453
1/15/2020 Laguna San José 1 Estaciones de la Laguna San José y Torrecilla Monitoreo calidad de agua 2020 27.90 11.20 8.32 N/A 0.70 148.50 13.00 7.47 18.428583 -66.035523
1/15/2020 Laguna San José 2 Estaciones de la Laguna San José y Torrecilla Monitoreo calidad de agua 2020 27.20 11.12 8.20 N/A 0.70 148.50 12.40 7.11 18.424755 -66.020036
1/15/2020 Laguna Torrecillas 1 Estaciones de la Laguna San José y Torrecilla Monitoreo calidad de agua 2020 27.20 6.10 1.52 N/A 3.04 95.00 53.54 35.38 18.457653 -65.992482
1/15/2020 Laguna Torrecillas 2 Estaciones de la Laguna San José y Torrecilla Monitoreo calidad de agua 2020 26.98 2.16 4.80 N/A 0.73 33.80 25.55 14.15 18.443649 -65.979654
1/15/2020 Laguna Torrecillas 3 Estaciones de la Laguna San José y Torrecilla Monitoreo calidad de agua 2020 25.88 3.07 4.74 N/A 1.15 38.40 6.29 3.33 18.436139 -65.969095
1/15/2020 Península La Esperanza Estaciones Terrestres Monitoreo calidad de agua 2020 28.56 2.68 0.87 N/A N/A 40.70 45.91 29.67 18.448518 -66.135437
1/15/2020 Quebrada Blasina Estaciones de la Laguna San José y Torrecilla Monitoreo calidad de agua 2020 25.52 3.03 5.45 N/A 0.88 37.80 2.10 1.04 18.423050 -65.967683
1/15/2020 Quebrada San Antón Estaciones de la Laguna San José y Torrecilla Monitoreo calidad de agua 2020 25.30 3.06 10..54 N/A 0.50 37.40 1.31 0.76 18.417355 -66.012213
1/15/2020 Río Piedras 1 Estaciones del Río Piedras Monitoreo calidad de agua 2020 25.58 7.87 3.10 8.08 N/A 96.40 0.47 0.22 18.402440 -66.065100
1/15/2020 Río Piedras 2 Estaciones del Río Piedras Monitoreo calidad de agua 2020 24.85 7.41 3.12 7.91 N/A 86.60 0.48 3.12 18.388218 -66.058581
1/15/2020 Río Piedras 3 Estaciones del Río Piedras Monitoreo calidad de agua 2020 25.63 7.94 2.47 7.89 N/A 94.00 0.39 0.20 18.376900 -66.059208
1/15/2020 Río Puerto Nuevo Estaciones de la Bahía de San Juan Monitoreo calidad de agua 2020 29.84 6.47 0.83 8.22 2.30 156.00 38.90 24.00 18.431262 -66.076687
12/15/2019 Bahía de San Juan 1 Estaciones de la Bahía de San Juan Monitoreo calidad de agua 2019 28.12 6.25 0.50 * 7.15 97.60 54.07 35.67 18.469567 -66.128554
12/15/2019 Bahía de San Juan 2 Estaciones de la Bahía de San Juan Monitoreo calidad de agua 2019 27.89 6.73 0.85 * 2.00 104.80 54.04 35.75 18.453831 -66.122214
12/15/2019 Bahía de San Juan 3 Estaciones de la Bahía de San Juan Monitoreo calidad de agua 2019 28.10 6.64 1.70 * 1.60 103.50 53.90 35.60 18.437665 -66.101517
12/15/2019 Canal La Malaria Estaciones Terrestres Monitoreo calidad de agua 2019 30.07 1.42 11.39 7.85 N/A 21.07 6.61 0.53 18.435714 -66.134322
12/15/2019 Canal San Antonio Estaciones de la Bahía de San Juan Monitoreo calidad de agua 2019 27.67 6.56 0.77 * 3.20 101.70 54.05 35.66 18.459911 -66.092909
12/15/2019 Canal Suárez 1 Estaciones de la Laguna San José y Torrecilla Monitoreo calidad de agua 2019 27.48 2.63 3.51 * 1.10 35.30 18.18 10.69 18.426339 -65.998859
12/15/2019 Canal Suárez 2 Estaciones de la Laguna San José y Torrecilla Monitoreo calidad de agua 2019 27.41 0.18 15.17 * 0.60 3.00 25.15 15.27 18.432897 -65.985150
12/15/2019 Caño Martín Peña Estaciones de la Bahía de San Juan Monitoreo calidad de agua 2019 28.40 2.70 2.60 * 1.60 42.30 40.00 22.00 18.432944 -66.060892
12/15/2019 Embalse Las Curias Estaciones del Río Piedras Monitoreo calidad de agua 2019 24.56 0.41 2.85 * N/A 5.00 0.29 0.14 18.342194 -66.050432
12/15/2019 Laguna del Condado 1 Estaciones de la Bahía de San Juan Monitoreo calidad de agua 2019 29.14 4.27 1.74 7.59 N/A 67.39 51.73 34.97 18.457225 -66.076954
12/15/2019 Laguna del Condado 2 Estaciones de la Bahía de San Juan Monitoreo calidad de agua 2019 27.25 5.47 0.87 7.66 N/A 79.41 52.71 34.73 18.461881 -66.084023
12/15/2019 Laguna los Corozos Estaciones de la Laguna San José y Torrecilla Monitoreo calidad de agua 2019 27.23 6.34 8.08 * 0.50 84.80 15.17 8.08 18.441579 -66.038588
12/15/2019 Laguna Piñones Estaciones Terrestres Monitoreo calidad de agua 2019 29.87 2.77 13.39 7.31 N/A 28.14 40.31 28.90 18.442242 -65.956453
12/15/2019 Laguna San José 1 Estaciones de la Laguna San José y Torrecilla Monitoreo calidad de agua 2019 27.39 6.10 4.05 * 0.85 80.90 14.30 8.20 18.428583 -66.035523
12/15/2019 Laguna San José 2 Estaciones de la Laguna San José y Torrecilla Monitoreo calidad de agua 2019 27.38 5.44 3.60 * 0..90 72.80 17.51 10.29 18.424755 -66.020036
12/15/2019 Laguna Torrecillas 1 Estaciones de la Laguna San José y Torrecilla Monitoreo calidad de agua 2019 27.72 5.78 13.30 * 0.20 89.30 54.09 30.51 18.457653 -65.992482
12/15/2019 Laguna Torrecillas 2 Estaciones de la Laguna San José y Torrecilla Monitoreo calidad de agua 2019 27.21 3.84 7.32 * 0.70 55.10 36.58 23.80 18.443649 -65.979654
12/15/2019 Laguna Torrecillas 3 Estaciones de la Laguna San José y Torrecilla Monitoreo calidad de agua 2019 27.68 2.47 3.05 * 1.05 35.60 26.77 19.34 18.436139 -65.969095
12/15/2019 Península La Esperanza Estaciones Terrestres Monitoreo calidad de agua 2019 28.63 3.79 8.41 7.37 N/A 35.17 20.74 15.93 18.448518 -66.135437
12/15/2019 Quebrada Blasina Estaciones de la Laguna San José y Torrecilla Monitoreo calidad de agua 2019 26.60 1.26 1.94 * 2.32 16.70 7.99 5.16 18.423050 -65.967683
12/15/2019 Quebrada San Antón Estaciones de la Laguna San José y Torrecilla Monitoreo calidad de agua 2019 27.30 0.76 4.16 * 1.80 10.30 12.70 8.30 18.417355 -66.012213
12/15/2019 Río Piedras 1 Estaciones del Río Piedras Monitoreo calidad de agua 2019 25.17 7.58 38.40 * N/A 92.10 0.28 0.13 18.402440 -66.065100
12/15/2019 Río Piedras 2 Estaciones del Río Piedras Monitoreo calidad de agua 2019 24.58 7.18 35.85 * N/A 86.30 0.29 0.14 18.388218 -66.058581
12/15/2019 Río Piedras 3 Estaciones del Río Piedras Monitoreo calidad de agua 2019 24.37 7.71 18.50 * N/A 92.40 0.34 0.17 18.376900 -66.059208
12/15/2019 Río Puerto Nuevo Estaciones de la Bahía de San Juan Monitoreo calidad de agua 2019 28.74 4.87 0.61 * 2.19 77.20 50.74 33.29 18.431262 -66.076687
11/15/2019 Bahía de San Juan 1 Estaciones de la Bahía de San Juan Monitoreo calidad de agua 2019 28.45 6.38 4.93 7.95 1.55 99.60 52.16 34.44 1.6 0.06 BDL <1.8 18.469567 -66.128554
11/15/2019 Bahía de San Juan 2 Estaciones de la Bahía de San Juan Monitoreo calidad de agua 2019 29.13 5.36 3.89 7.86 0.65 85.00 52.77 34.84 1.4 0.03 BDL <1.7 18.453831 -66.122214
11/15/2019 Bahía de San Juan 3 Estaciones de la Bahía de San Juan Monitoreo calidad de agua 2019 28.52 5.08 3.11 7.85 1.85 78.00 49.67 32.62 1.6 0.04 BDL <1.8 18.437665 -66.101517
11/15/2019 Canal La Malaria Estaciones Terrestres Monitoreo calidad de agua 2019 29.57 1.79 13.20 7.83 N/A 22.60 0.75 0.39 18.435714 -66.134322
11/15/2019 Canal San Antonio Estaciones de la Bahía de San Juan Monitoreo calidad de agua 2019 28.74 5.62 2.45 7.78 2.85 88.90 54.26 35.97 1.4 0.04 BDL <1.8 18.459911 -66.092909
11/15/2019 Canal Suárez 1 Estaciones de la Laguna San José y Torrecilla Monitoreo calidad de agua 2019 29.22 7.13 10.20 8.20 0.55 99.20 18.55 10.97 18.426339 -65.998859
11/15/2019 Canal Suárez 2 Estaciones de la Laguna San José y Torrecilla Monitoreo calidad de agua 2019 29.55 0.10 13.40 7.88 0.56 0.00 28.38 17.50 N/A N/A N/A N/A 18.432897 -65.985150
11/15/2019 Caño Martín Peña Estaciones de la Bahía de San Juan Monitoreo calidad de agua 2019 28.48 0.23 5.31 7.33 0.70 4.50 22.89 15.86 1.7 0.06 BDL 33 18.432944 -66.060892
11/15/2019 Embalse Las Curias Estaciones del Río Piedras Monitoreo calidad de agua 2019 N/A 18.342194 -66.050432
11/15/2019 Laguna del Condado 1 Estaciones de la Bahía de San Juan Monitoreo calidad de agua 2019 29.25 4.52 1.72 7.66 N/A 70.30 50.70 34.08 18.457225 -66.076954
11/15/2019 Laguna del Condado 2 Estaciones de la Bahía de San Juan Monitoreo calidad de agua 2019 N/A 18.461881 -66.084023
11/15/2019 Laguna los Corozos Estaciones de la Laguna San José y Torrecilla Monitoreo calidad de agua 2019 29.24 4.23 14.00 8.65 0.45 183.70 17.77 10.46 2.2 BDL BDL 4.5 18.441579 -66.038588
11/15/2019 Laguna Piñones Estaciones Terrestres Monitoreo calidad de agua 2019 29.34 1.97 11.10 7.27 N/A 30.00 42.21 27.15 18.442242 -65.956453
11/15/2019 Laguna San José 1 Estaciones de la Laguna San José y Torrecilla Monitoreo calidad de agua 2019 29.90 5.97 10.90 8.42 0.55 139.70 17.92 10.90 18.428583 -66.035523
11/15/2019 Laguna San José 2 Estaciones de la Laguna San José y Torrecilla Monitoreo calidad de agua 2019 29.97 10.31 7.83 8.43 0.43 144.20 17.64 10.36 18.424755 -66.020036
11/15/2019 Laguna Torrecillas 1 Estaciones de la Laguna San José y Torrecilla Monitoreo calidad de agua 2019 29.31 5.35 4.44 7.75 1.91 83.90 53.84 35.69 N/A N/A N/A N/A 18.457653 -65.992482
11/15/2019 Laguna Torrecillas 2 Estaciones de la Laguna San José y Torrecilla Monitoreo calidad de agua 2019 29.39 4.41 6.01 7.73 0.82 66.70 41.34 26.56 1.4 BDL BDL <1.8 18.443649 -65.979654
11/15/2019 Laguna Torrecillas 3 Estaciones de la Laguna San José y Torrecilla Monitoreo calidad de agua 2019 29.11 0.76 7.47 7.13 0.97 11.00 32.79 19.42 BDL BDL BDL 46 18.436139 -65.969095
11/15/2019 Península La Esperanza Estaciones Terrestres Monitoreo calidad de agua 2019 29.37 4.76 8.64 7.45 N/A 54.30 14.18 8.04 18.448518 -66.135437
11/15/2019 Quebrada Blasina Estaciones de la Laguna San José y Torrecilla Monitoreo calidad de agua 2019 27.45 0.20 4.80 7.26 0.52 2.60 13.10 9.00 1.4 0.09 BDL 110 18.423050 -65.967683
11/15/2019 Quebrada San Antón Estaciones de la Laguna San José y Torrecilla Monitoreo calidad de agua 2019 27.61 2.65 3.48 8.07 0.86 32.30 4.16 2.67 18.417355 -66.012213
11/15/2019 Río Piedras 1 Estaciones del Río Piedras Monitoreo calidad de agua 2019 N/A 18.402440 -66.065100
11/15/2019 Río Piedras 2 Estaciones del Río Piedras Monitoreo calidad de agua 2019 N/A 18.388218 -66.058581
11/15/2019 Río Piedras 3 Estaciones del Río Piedras Monitoreo calidad de agua 2019 N/A 18.376900 -66.059208
11/15/2019 Río Puerto Nuevo Estaciones de la Bahía de San Juan Monitoreo calidad de agua 2019 25.46 5.05 12.20 7.60 1.10 61.90 62.25 3.45 1.6 0.65 BDL 4.5 18.431262 -66.076687
10/15/2019 Bahía de San Juan 1 Estaciones de la Bahía de San Juan Monitoreo calidad de agua 2019 30.03 5.93 3.89 7.86 2.00 94.20 54.38 36.80 18.469567 -66.128554
10/15/2019 Bahía de San Juan 2 Estaciones de la Bahía de San Juan Monitoreo calidad de agua 2019 29.98 5.81 2.77 7.82 2.20 93.50 54.21 35.94 18.453831 -66.122214
10/15/2019 Bahía de San Juan 3 Estaciones de la Bahía de San Juan Monitoreo calidad de agua 2019 30.30 5.60 3.61 7.77 1.05 90.60 54.24 35.96 18.437665 -66.101517
10/15/2019 Canal La Malaria Estaciones Terrestres Monitoreo calidad de agua 2019 27.89 1.97 11.36 7.45 N/A 12.06 0.55 0.30 1.8 0.18 0.05 92000 18.435714 -66.134322
10/15/2019 Canal San Antonio Estaciones de la Bahía de San Juan Monitoreo calidad de agua 2019 29.50 5.76 0.87 7.81 3.65 92.40 54.60 34.21 18.459911 -66.092909
10/15/2019 Canal Suárez 1 Estaciones de la Laguna San José y Torrecilla Monitoreo calidad de agua 2019 29.74 3.70 4.64 7.65 0.90 52.20 19.84 11.81 BDL 0.09 BDL 49 18.426339 -65.998859
10/15/2019 Canal Suárez 2 Estaciones de la Laguna San José y Torrecilla Monitoreo calidad de agua 2019 * * * * * * * * 18.432897 -65.985150
10/15/2019 Caño Martín Peña Estaciones de la Bahía de San Juan Monitoreo calidad de agua 2019 29.11 1.91 2.70 7.26 1.40 31.50 31.57 20.80 18.432944 -66.060892
10/15/2019 Embalse Las Curias Estaciones del Río Piedras Monitoreo calidad de agua 2019 * * * * * * * * 1.4 0.05 0.05 46 18.342194 -66.050432
10/15/2019 Laguna del Condado 1 Estaciones de la Bahía de San Juan Monitoreo calidad de agua 2019 30.21 5.36 3.07 7.84 N/A 85.41 55.00 35.66 2.1 0.08 BDL 220 18.457225 -66.076954
10/15/2019 Laguna del Condado 2 Estaciones de la Bahía de San Juan Monitoreo calidad de agua 2019 28.20 7.03 0.99 8.02 N/A 110.70 58.70 36.22 1.7 0.06 BDL 14 18.461881 -66.084023
10/15/2019 Laguna los Corozos Estaciones de la Laguna San José y Torrecilla Monitoreo calidad de agua 2019 30.05 8.19 8.39 8.28 0.60 114.90 17.18 10.08 1.4 0.03 BDL 2 18.441579 -66.038588
10/15/2019 Laguna Piñones Estaciones Terrestres Monitoreo calidad de agua 2019 26.31 4.97 37.31 7.52 N/A 60.22 40.71 28.09 2.0 0.06 BDL 26 18.442242 -65.956453
10/15/2019 Laguna San José 1 Estaciones de la Laguna San José y Torrecilla Monitoreo calidad de agua 2019 30.31 6.90 8.72 8.22 0.65 96.30 17.53 10.31 2 0.04 BDL 33 18.428583 -66.035523
10/15/2019 Laguna San José 2 Estaciones de la Laguna San José y Torrecilla Monitoreo calidad de agua 2019 29.57 7.35 7.44 8.00 0.70 102.00 18.02 10.62 2.5 0.06 0.01 <1.8 18.424755 -66.020036
10/15/2019 Laguna Torrecillas 1 Estaciones de la Laguna San José y Torrecilla Monitoreo calidad de agua 2019 * * * * * * * * 18.457653 -65.992482
10/15/2019 Laguna Torrecillas 2 Estaciones de la Laguna San José y Torrecilla Monitoreo calidad de agua 2019 * * * * * * * * 18.443649 -65.979654
10/15/2019 Laguna Torrecillas 3 Estaciones de la Laguna San José y Torrecilla Monitoreo calidad de agua 2019 * * * * * * * * 18.436139 -65.969095
10/15/2019 Península La Esperanza Estaciones Terrestres Monitoreo calidad de agua 2019 27.00 5.96 8.14 7.36 N/A 69.28 7.39 5.03 1.5 0.18 BDL 1100 18.448518 -66.135437
10/15/2019 Quebrada Blasina Estaciones de la Laguna San José y Torrecilla Monitoreo calidad de agua 2019 * * * * * * * * 18.423050 -65.967683
10/15/2019 Quebrada San Antón Estaciones de la Laguna San José y Torrecilla Monitoreo calidad de agua 2019 27.73 3.01 2.68 7.75 1.00 38.00 22.47 12.30 1.5 0.76 0.06 2200 18.417355 -66.012213
10/15/2019 Río Piedras 1 Estaciones del Río Piedras Monitoreo calidad de agua 2019 27.57 6.01 7.93 7.71 N/A 75.10 0.31 0.22 1.8 0.73 0.08 17000 18.402440 -66.065100
10/15/2019 Río Piedras 2 Estaciones del Río Piedras Monitoreo calidad de agua 2019 27.14 6.68 6.47 7.23 N/A 74.93 0.49 0.24 BDL 0.67 0.07 35000 18.388218 -66.058581
10/15/2019 Río Piedras 3 Estaciones del Río Piedras Monitoreo calidad de agua 2019 26.55 7.10 8.33 7.52 N/A 87.13 0.52 0.22 1.6 0.64 0.07 17000 18.376900 -66.059208
10/15/2019 Río Puerto Nuevo Estaciones de la Bahía de San Juan Monitoreo calidad de agua 2019 30.00 5.41 3.30 7.48 1.20 90.80 34.00 30.48 18.431262 -66.076687
9/15/2019 Bahía de San Juan 1 Estaciones de la Bahía de San Juan Monitoreo calidad de agua 2019 30.27 6.18 1.26 7.99 2.65 99.40 52.77 34.89 18.469567 -66.128554
9/15/2019 Bahía de San Juan 2 Estaciones de la Bahía de San Juan Monitoreo calidad de agua 2019 30.47 5.97 2.71 7.91 1.55 96.80 53.55 35.44 18.453831 -66.122214
9/15/2019 Bahía de San Juan 3 Estaciones de la Bahía de San Juan Monitoreo calidad de agua 2019 30.53 5.09 3.43 7.75 1.75 83 53.96 35.72 18.437665 -66.101517
9/15/2019 Canal La Malaria Estaciones Terrestres Monitoreo calidad de agua 2019 31.72 1.70 57.90 7.47 N/A 23.00 24.00 1.29 18.435714 -66.134322
9/15/2019 Canal San Antonio Estaciones de la Bahía de San Juan Monitoreo calidad de agua 2019 30.15 6.58 1.19 7.85 3.00 105.00 52.21 34.47 18.459911 -66.092909
9/15/2019 Canal Suárez 1 Estaciones de la Laguna San José y Torrecilla Monitoreo calidad de agua 2019 30.27 4.07 6.18 7.70 1.15 57.60 14.59 8.44 18.426339 -65.998859
9/15/2019 Canal Suárez 2 Estaciones de la Laguna San José y Torrecilla Monitoreo calidad de agua 2019 30.29 1.12 8.77 7.39 1.00 17.50 23.18 13.84 18.432897 -65.985150
9/15/2019 Caño Martín Peña Estaciones de la Bahía de San Juan Monitoreo calidad de agua 2019 30.39 1.07 16.10 7.21 0.95 21.10 42.23 29.87 18.432944 -66.060892
9/15/2019 Embalse Las Curias Estaciones del Río Piedras Monitoreo calidad de agua 2019 N/A N/A N/A N/A N/A N/A N/A N/A 18.342194 -66.050432
9/15/2019 Laguna del Condado 1 Estaciones de la Bahía de San Juan Monitoreo calidad de agua 2019 30.49 4.37 3.04 7.47 N/A 70.60 53.30 35.23 18.457225 -66.076954
9/15/2019 Laguna del Condado 2 Estaciones de la Bahía de San Juan Monitoreo calidad de agua 2019 28.03 6.23 1.70 7.98 N/A 89.30 55.12 36.02 18.461881 -66.084023
9/15/2019 Laguna los Corozos Estaciones de la Laguna San José y Torrecilla Monitoreo calidad de agua 2019 29.88 8.89 14.20 8.28 0.60 122.10 13.41 7.73 18.441579 -66.038588
9/15/2019 Laguna Piñones Estaciones Terrestres Monitoreo calidad de agua 2019 31.36 5.91 17.30 7.43 N/A 91.10 36.05 23.42 18.442242 -65.956453
9/15/2019 Laguna San José 1 Estaciones de la Laguna San José y Torrecilla Monitoreo calidad de agua 2019 30.04 7.44 11.70 8.20 0.65 101.20 13.74 7.93 18.428583 -66.035523
9/15/2019 Laguna San José 2 Estaciones de la Laguna San José y Torrecilla Monitoreo calidad de agua 2019 30.34 8.43 13.60 8.15 0.55 116.50 13.18 7.57 18.424755 -66.020036
9/15/2019 Laguna Torrecillas 1 Estaciones de la Laguna San José y Torrecilla Monitoreo calidad de agua 2019 30.10 5.31 3.86 7.76 2.68 86.70 54.18 35.75 18.457653 -65.992482
9/15/2019 Laguna Torrecillas 2 Estaciones de la Laguna San José y Torrecilla Monitoreo calidad de agua 2019 30.18 2.56 4.87 7.24 N/A 37.30 34.81 21.78 18.443649 -65.979654
9/15/2019 Laguna Torrecillas 3 Estaciones de la Laguna San José y Torrecilla Monitoreo calidad de agua 2019 29.00 0.84 7.82 7.05 0.93 11.40 8.71 4.87 18.436139 -65.969095
9/15/2019 Península La Esperanza Estaciones Terrestres Monitoreo calidad de agua 2019 29.81 2.64 32.00 7.20 N/A 48.30 35.96 22.09 18.448518 -66.135437
9/15/2019 Quebrada Blasina Estaciones de la Laguna San José y Torrecilla Monitoreo calidad de agua 2019 27.85 0.16 9.91 7.13 0.63 2.00 3.27 1.81 18.423050 -65.967683
9/15/2019 Quebrada San Antón Estaciones de la Laguna San José y Torrecilla Monitoreo calidad de agua 2019 27.92 5.54 9.14 7.80 0.80 70.90 11.78 0.59 18.417355 -66.012213
9/15/2019 Río Piedras 1 Estaciones del Río Piedras Monitoreo calidad de agua 2019 29.21 8.07 11.71 7.74 N/A 99.70 0.60 0.41 18.402440 -66.065100
9/15/2019 Río Piedras 2 Estaciones del Río Piedras Monitoreo calidad de agua 2019 28.03 6.22 12.70 7.55 N/A 91.67 0.66 0.48 18.388218 -66.058581
9/15/2019 Río Piedras 3 Estaciones del Río Piedras Monitoreo calidad de agua 2019 27.44 6.99 10.30 7.55 N/A 90.30 0.63 0.41 18.376900 -66.059208
9/15/2019 Río Puerto Nuevo Estaciones de la Bahía de San Juan Monitoreo calidad de agua 2019 31.07 6.85 2.81 7.69 1.25 117.40 44.78 28.98 18.431262 -66.076687
8/15/2019 Bahía de San Juan 1 Estaciones de la Bahía de San Juan Monitoreo calidad de agua 2019 18.469567 -66.128554
8/15/2019 Bahía de San Juan 2 Estaciones de la Bahía de San Juan Monitoreo calidad de agua 2019 18.453831 -66.122214
8/15/2019 Bahía de San Juan 3 Estaciones de la Bahía de San Juan Monitoreo calidad de agua 2019 18.437665 -66.101517
8/15/2019 Canal La Malaria Estaciones Terrestres Monitoreo calidad de agua 2019 18.435714 -66.134322
8/15/2019 Canal San Antonio Estaciones de la Bahía de San Juan Monitoreo calidad de agua 2019 18.459911 -66.092909
8/15/2019 Canal Suárez 1 Estaciones de la Laguna San José y Torrecilla Monitoreo calidad de agua 2019 18.426339 -65.998859
8/15/2019 Canal Suárez 2 Estaciones de la Laguna San José y Torrecilla Monitoreo calidad de agua 2019 18.432897 -65.985150
8/15/2019 Caño Martín Peña Estaciones de la Bahía de San Juan Monitoreo calidad de agua 2019 18.432944 -66.060892
8/15/2019 Embalse Las Curias Estaciones del Río Piedras Monitoreo calidad de agua 2019 18.342194 -66.050432
8/15/2019 Laguna del Condado 1 Estaciones de la Bahía de San Juan Monitoreo calidad de agua 2019 18.457225 -66.076954
8/15/2019 Laguna del Condado 2 Estaciones de la Bahía de San Juan Monitoreo calidad de agua 2019 18.461881 -66.084023
8/15/2019 Laguna los Corozos Estaciones de la Laguna San José y Torrecilla Monitoreo calidad de agua 2019 18.441579 -66.038588
8/15/2019 Laguna Piñones Estaciones Terrestres Monitoreo calidad de agua 2019 18.442242 -65.956453
8/15/2019 Laguna San José 1 Estaciones de la Laguna San José y Torrecilla Monitoreo calidad de agua 2019 18.428583 -66.035523
8/15/2019 Laguna San José 2 Estaciones de la Laguna San José y Torrecilla Monitoreo calidad de agua 2019 18.424755 -66.020036
8/15/2019 Laguna Torrecillas 1 Estaciones de la Laguna San José y Torrecilla Monitoreo calidad de agua 2019 18.457653 -65.992482
8/15/2019 Laguna Torrecillas 2 Estaciones de la Laguna San José y Torrecilla Monitoreo calidad de agua 2019 18.443649 -65.979654
8/15/2019 Laguna Torrecillas 3 Estaciones de la Laguna San José y Torrecilla Monitoreo calidad de agua 2019 18.436139 -65.969095
8/15/2019 Península La Esperanza Estaciones Terrestres Monitoreo calidad de agua 2019 18.448518 -66.135437
8/15/2019 Quebrada Blasina Estaciones de la Laguna San José y Torrecilla Monitoreo calidad de agua 2019 18.423050 -65.967683
8/15/2019 Quebrada San Antón Estaciones de la Laguna San José y Torrecilla Monitoreo calidad de agua 2019 18.417355 -66.012213
8/15/2019 Río Piedras 1 Estaciones del Río Piedras Monitoreo calidad de agua 2019 18.402440 -66.065100
8/15/2019 Río Piedras 2 Estaciones del Río Piedras Monitoreo calidad de agua 2019 18.388218 -66.058581
8/15/2019 Río Piedras 3 Estaciones del Río Piedras Monitoreo calidad de agua 2019 18.376900 -66.059208
8/15/2019 Río Puerto Nuevo Estaciones de la Bahía de San Juan Monitoreo calidad de agua 2019 18.431262 -66.076687

Calidad de Agua: Indicadores físico químicos

El Programa de Monitoreo de Calidad de Agua del Estuario de la Bahía de San Juan tiene como función el velar por la calidad de las agua del Estuario de la Bahía de San Juan mediante la caracterización físico-química de sus cuerpos de agua. La evaluación se lleva a cabo mediante la cuantificación y medición mensual de parámetros que utilizan indicadores ambientales. Estos indicadores, a su vez nos permiten la recopilación de datos y la realización de diversos análisis que nos permiten conocer las condiciones de los ecosistemas contenidos en dichos cuerpos de agua. El programa es un componente esencial del Programa del Estuario de la Bahía de San Juan (PEBSJ) debido a que permite estudiar el impacto de las actividades ejecutadas a través del Plan Integral de Manejo y Conservación del PEBSJ sobre los cuerpos de agua del EBSJ.

El Programa de Monitoreo de Calidad de Agua del EBSJ tiene los siguientes objetivos principales:

  • Determinar la condición actual del Estuario y cómo esta cambia con el tiempo.
  • Identificar y corregir fuentes de contaminación.
  • Levantar bandera roja en caso de que se observe algún contaminante y de esta forma notificar a las agencias correspondientes.
  • Generar una base de datos para estudios y publicaciones.
  • La educación y adiestramiento a voluntarios en técnicas de monitoreo ambiental.

Durante el monitoreo mensual se recolectan datos de ocho parámetros físico-químicos mediante el uso de instrumentos de campo: temperatura, oxígeno disuelto, turbidez, pH, transparencia, conductividad específica, salinidad y oxígeno disuelto saturado. Algunos de estos parámetros tienen valores meta, los cuales indican si los datos recolectados ese día cumplen con los estándares de calidad de agua del PESBJ. Dos veces al año se tomarán muestras de agua para cada estación con el fin de someterlas a pruebas de laboratorio. Estas pruebas incluyen 11 nuevos parámetros de calidad de agua que nos ayudarán a elaborar un análisis más profundo sobre el estatus actual de la calidad de agua del EBSJ.

El Programa de Monitoreo de Calidad de Agua del EBSJ delimitó 25 estaciones de monitoreo a través de la cuenca hidrográfica del EBSJ cubriendo 14 cuerpos de agua que varían entre: ríos, quebradas, canales estuarinos, lagunas y la Bahía. Los datos son recolectados una semana al mes. Los viajes de campo fueron diseñados para maximizar el tiempo de trabajo en cuatro días, por lo tanto las estaciones son agrupadas por día de monitoreo en cuatro grupos: estaciones del Río Piedras, estaciones de la Bahía de San Juan, estaciones de la Laguna San José y Torrecillas y estaciones terrestres.